sensor_id;sensor_type;location;lat;lon;timestamp;P1;durP1;ratioP1;P2;durP2;ratioP2
29330;SDS011;16331;52.528;13.342;2022-09-09T00:01:23;8.77;;;5.88;;
29330;SDS011;16331;52.528;13.342;2022-09-09T00:04:22;14.50;;;5.28;;
29330;SDS011;16331;52.528;13.342;2022-09-09T00:06:59;11.15;;;6.32;;
29330;SDS011;16331;52.528;13.342;2022-09-09T00:12:17;10.65;;;6.15;;
29330;SDS011;16331;52.528;13.342;2022-09-09T00:15:00;11.70;;;6.53;;
29330;SDS011;16331;52.528;13.342;2022-09-09T00:28:28;10.68;;;6.13;;
29330;SDS011;16331;52.528;13.342;2022-09-09T00:30:57;11.38;;;6.70;;
29330;SDS011;16331;52.528;13.342;2022-09-09T00:33:40;10.05;;;5.88;;
29330;SDS011;16331;52.528;13.342;2022-09-09T00:36:15;10.15;;;5.82;;
29330;SDS011;16331;52.528;13.342;2022-09-09T00:38:48;14.50;;;6.47;;
29330;SDS011;16331;52.528;13.342;2022-09-09T00:44:20;11.43;;;6.18;;
29330;SDS011;16331;52.528;13.342;2022-09-09T00:50:00;11.68;;;6.47;;
29330;SDS011;16331;52.528;13.342;2022-09-09T00:52:58;11.45;;;6.43;;
29330;SDS011;16331;52.528;13.342;2022-09-09T00:58:13;12.25;;;6.50;;
29330;SDS011;16331;52.528;13.342;2022-09-09T01:03:45;13.88;;;7.40;;
29330;SDS011;16331;52.528;13.342;2022-09-09T01:06:36;13.20;;;7.03;;
29330;SDS011;16331;52.528;13.342;2022-09-09T01:19:50;16.65;;;6.85;;
29330;SDS011;16331;52.528;13.342;2022-09-09T01:22:39;11.70;;;6.05;;
29330;SDS011;16331;52.528;13.342;2022-09-09T01:27:52;13.35;;;6.85;;
29330;SDS011;16331;52.528;13.342;2022-09-09T01:30:21;12.82;;;6.22;;
29330;SDS011;16331;52.528;13.342;2022-09-09T01:32:49;13.13;;;7.15;;
29330;SDS011;16331;52.528;13.342;2022-09-09T01:35:24;17.48;;;8.40;;
29330;SDS011;16331;52.528;13.342;2022-09-09T01:37:56;13.85;;;7.22;;
29330;SDS011;16331;52.528;13.342;2022-09-09T01:40:22;11.45;;;6.95;;
29330;SDS011;16331;52.528;13.342;2022-09-09T01:42:49;14.82;;;6.95;;
29330;SDS011;16331;52.528;13.342;2022-09-09T01:45:16;10.15;;;6.05;;
29330;SDS011;16331;52.528;13.342;2022-09-09T01:47:42;12.50;;;6.82;;
29330;SDS011;16331;52.528;13.342;2022-09-09T01:50:10;16.63;;;8.10;;
29330;SDS011;16331;52.528;13.342;2022-09-09T01:52:39;12.02;;;7.03;;
29330;SDS011;16331;52.528;13.342;2022-09-09T01:55:05;13.40;;;7.55;;
29330;SDS011;16331;52.528;13.342;2022-09-09T02:00:13;16.08;;;7.43;;
29330;SDS011;16331;52.528;13.342;2022-09-09T02:05:17;14.60;;;6.78;;
29330;SDS011;16331;52.528;13.342;2022-09-09T02:07:48;16.52;;;7.72;;
29330;SDS011;16331;52.528;13.342;2022-09-09T02:10:20;12.98;;;6.93;;
29330;SDS011;16331;52.528;13.342;2022-09-09T02:12:48;13.02;;;7.20;;
29330;SDS011;16331;52.528;13.342;2022-09-09T02:15:26;16.98;;;8.80;;
29330;SDS011;16331;52.528;13.342;2022-09-09T02:18:17;14.50;;;7.18;;
29330;SDS011;16331;52.528;13.342;2022-09-09T02:20:51;16.23;;;7.53;;
29330;SDS011;16331;52.528;13.342;2022-09-09T02:23:18;11.85;;;6.80;;
29330;SDS011;16331;52.528;13.342;2022-09-09T02:25:45;16.00;;;7.43;;
29330;SDS011;16331;52.528;13.342;2022-09-09T02:28:13;13.43;;;7.28;;
29330;SDS011;16331;52.528;13.342;2022-09-09T02:30:41;14.73;;;7.15;;
29330;SDS011;16331;52.528;13.342;2022-09-09T02:33:12;14.57;;;7.30;;
29330;SDS011;16331;52.528;13.342;2022-09-09T02:35:39;17.05;;;7.50;;
29330;SDS011;16331;52.528;13.342;2022-09-09T02:38:10;13.05;;;7.28;;
29330;SDS011;16331;52.528;13.342;2022-09-09T02:40:40;13.48;;;7.13;;
29330;SDS011;16331;52.528;13.342;2022-09-09T02:43:06;17.27;;;7.18;;
29330;SDS011;16331;52.528;13.342;2022-09-09T02:45:36;12.63;;;7.30;;
29330;SDS011;16331;52.528;13.342;2022-09-09T02:50:50;12.48;;;6.60;;
29330;SDS011;16331;52.528;13.342;2022-09-09T02:53:49;12.93;;;7.32;;
29330;SDS011;16331;52.528;13.342;2022-09-09T02:56:36;12.50;;;6.53;;
29330;SDS011;16331;52.528;13.342;2022-09-09T02:59:08;11.70;;;7.35;;
29330;SDS011;16331;52.528;13.342;2022-09-09T03:01:35;12.80;;;5.93;;
29330;SDS011;16331;52.528;13.342;2022-09-09T03:04:02;13.30;;;6.65;;
29330;SDS011;16331;52.528;13.342;2022-09-09T03:06:30;14.50;;;6.13;;
29330;SDS011;16331;52.528;13.342;2022-09-09T03:08:56;15.05;;;7.80;;
29330;SDS011;16331;52.528;13.342;2022-09-09T03:11:23;11.70;;;6.13;;
29330;SDS011;16331;52.528;13.342;2022-09-09T03:13:50;13.73;;;6.90;;
29330;SDS011;16331;52.528;13.342;2022-09-09T03:16:16;19.20;;;6.28;;
29330;SDS011;16331;52.528;13.342;2022-09-09T03:18:42;11.00;;;5.85;;
29330;SDS011;16331;52.528;13.342;2022-09-09T03:21:09;11.95;;;6.53;;
29330;SDS011;16331;52.528;13.342;2022-09-09T03:23:36;13.77;;;6.45;;
29330;SDS011;16331;52.528;13.342;2022-09-09T03:26:02;11.82;;;5.82;;
29330;SDS011;16331;52.528;13.342;2022-09-09T03:28:28;14.55;;;6.88;;
29330;SDS011;16331;52.528;13.342;2022-09-09T03:30:59;12.43;;;7.65;;
29330;SDS011;16331;52.528;13.342;2022-09-09T03:33:26;15.38;;;5.82;;
29330;SDS011;16331;52.528;13.342;2022-09-09T03:35:53;10.93;;;5.95;;
29330;SDS011;16331;52.528;13.342;2022-09-09T03:38:21;11.85;;;6.40;;
29330;SDS011;16331;52.528;13.342;2022-09-09T03:40:49;10.30;;;6.07;;
29330;SDS011;16331;52.528;13.342;2022-09-09T03:43:16;10.05;;;5.65;;
29330;SDS011;16331;52.528;13.342;2022-09-09T03:45:45;11.52;;;5.78;;
29330;SDS011;16331;52.528;13.342;2022-09-09T03:48:12;9.73;;;6.13;;
29330;SDS011;16331;52.528;13.342;2022-09-09T03:50:43;9.90;;;5.22;;
29330;SDS011;16331;52.528;13.342;2022-09-09T03:53:10;12.88;;;5.75;;
29330;SDS011;16331;52.528;13.342;2022-09-09T03:55:36;10.90;;;5.10;;
29330;SDS011;16331;52.528;13.342;2022-09-09T03:58:02;9.38;;;5.03;;
29330;SDS011;16331;52.528;13.342;2022-09-09T04:00:28;11.55;;;6.13;;
29330;SDS011;16331;52.528;13.342;2022-09-09T04:02:55;10.00;;;5.75;;
29330;SDS011;16331;52.528;13.342;2022-09-09T04:05:23;9.52;;;5.22;;
29330;SDS011;16331;52.528;13.342;2022-09-09T04:07:49;9.95;;;5.40;;
29330;SDS011;16331;52.528;13.342;2022-09-09T04:10:16;9.40;;;5.13;;
29330;SDS011;16331;52.528;13.342;2022-09-09T04:12:42;8.50;;;5.45;;
29330;SDS011;16331;52.528;13.342;2022-09-09T04:15:09;12.23;;;5.20;;
29330;SDS011;16331;52.528;13.342;2022-09-09T04:17:35;10.48;;;5.47;;
29330;SDS011;16331;52.528;13.342;2022-09-09T04:20:02;9.88;;;5.47;;
29330;SDS011;16331;52.528;13.342;2022-09-09T04:22:28;8.15;;;4.82;;
29330;SDS011;16331;52.528;13.342;2022-09-09T04:24:54;10.70;;;5.25;;
29330;SDS011;16331;52.528;13.342;2022-09-09T04:27:20;10.13;;;5.30;;
29330;SDS011;16331;52.528;13.342;2022-09-09T04:29:46;9.98;;;5.35;;
29330;SDS011;16331;52.528;13.342;2022-09-09T04:32:12;10.65;;;4.82;;
29330;SDS011;16331;52.528;13.342;2022-09-09T04:34:38;8.45;;;4.68;;
29330;SDS011;16331;52.528;13.342;2022-09-09T04:37:06;8.90;;;4.63;;
29330;SDS011;16331;52.528;13.342;2022-09-09T04:39:32;6.85;;;4.03;;
29330;SDS011;16331;52.528;13.342;2022-09-09T04:41:58;10.82;;;5.20;;
29330;SDS011;16331;52.528;13.342;2022-09-09T04:44:24;11.55;;;5.90;;
29330;SDS011;16331;52.528;13.342;2022-09-09T04:46:50;9.25;;;5.60;;
29330;SDS011;16331;52.528;13.342;2022-09-09T04:49:16;10.95;;;5.80;;
29330;SDS011;16331;52.528;13.342;2022-09-09T04:51:42;8.90;;;4.80;;
29330;SDS011;16331;52.528;13.342;2022-09-09T04:54:08;12.77;;;5.25;;
29330;SDS011;16331;52.528;13.342;2022-09-09T04:56:35;10.07;;;5.65;;
29330;SDS011;16331;52.528;13.342;2022-09-09T04:59:01;11.55;;;5.97;;
29330;SDS011;16331;52.528;13.342;2022-09-09T05:01:28;8.65;;;5.20;;
29330;SDS011;16331;52.528;13.342;2022-09-09T05:03:54;9.27;;;4.20;;
29330;SDS011;16331;52.528;13.342;2022-09-09T05:06:23;9.32;;;4.45;;
29330;SDS011;16331;52.528;13.342;2022-09-09T05:08:50;8.75;;;4.65;;
29330;SDS011;16331;52.528;13.342;2022-09-09T05:11:17;7.57;;;4.57;;
29330;SDS011;16331;52.528;13.342;2022-09-09T05:13:43;11.48;;;4.90;;
29330;SDS011;16331;52.528;13.342;2022-09-09T05:16:10;7.28;;;4.30;;
29330;SDS011;16331;52.528;13.342;2022-09-09T05:21:59;10.60;;;4.47;;
29330;SDS011;16331;52.528;13.342;2022-09-09T05:24:26;13.00;;;4.20;;
29330;SDS011;16331;52.528;13.342;2022-09-09T05:26:52;8.90;;;4.43;;
29330;SDS011;16331;52.528;13.342;2022-09-09T05:29:18;8.98;;;5.13;;
29330;SDS011;16331;52.528;13.342;2022-09-09T05:31:47;6.90;;;4.40;;
29330;SDS011;16331;52.528;13.342;2022-09-09T05:34:15;8.65;;;4.10;;
29330;SDS011;16331;52.528;13.342;2022-09-09T05:36:41;7.75;;;3.83;;
29330;SDS011;16331;52.528;13.342;2022-09-09T05:39:07;8.70;;;3.90;;
29330;SDS011;16331;52.528;13.342;2022-09-09T05:41:33;13.57;;;5.43;;
29330;SDS011;16331;52.528;13.342;2022-09-09T05:44:01;10.70;;;5.22;;
29330;SDS011;16331;52.528;13.342;2022-09-09T05:46:30;10.45;;;4.75;;
29330;SDS011;16331;52.528;13.342;2022-09-09T05:48:56;9.63;;;4.38;;
29330;SDS011;16331;52.528;13.342;2022-09-09T05:51:24;8.85;;;3.88;;
29330;SDS011;16331;52.528;13.342;2022-09-09T05:53:53;9.20;;;3.85;;
29330;SDS011;16331;52.528;13.342;2022-09-09T05:56:21;7.40;;;3.05;;
29330;SDS011;16331;52.528;13.342;2022-09-09T05:58:50;6.47;;;3.40;;
29330;SDS011;16331;52.528;13.342;2022-09-09T06:01:19;6.32;;;3.00;;
29330;SDS011;16331;52.528;13.342;2022-09-09T06:03:47;8.50;;;3.50;;
29330;SDS011;16331;52.528;13.342;2022-09-09T06:06:16;11.65;;;3.00;;
29330;SDS011;16331;52.528;13.342;2022-09-09T06:08:45;4.15;;;2.47;;
29330;SDS011;16331;52.528;13.342;2022-09-09T06:11:13;3.88;;;2.50;;
29330;SDS011;16331;52.528;13.342;2022-09-09T06:13:44;6.50;;;2.80;;
29330;SDS011;16331;52.528;13.342;2022-09-09T06:16:11;3.75;;;2.67;;
29330;SDS011;16331;52.528;13.342;2022-09-09T06:18:42;9.98;;;3.60;;
29330;SDS011;16331;52.528;13.342;2022-09-09T06:21:15;7.60;;;3.13;;
29330;SDS011;16331;52.528;13.342;2022-09-09T06:23:43;10.55;;;3.83;;
29330;SDS011;16331;52.528;13.342;2022-09-09T06:26:31;7.50;;;3.45;;
29330;SDS011;16331;52.528;13.342;2022-09-09T06:29:00;5.32;;;3.17;;
29330;SDS011;16331;52.528;13.342;2022-09-09T06:31:29;13.15;;;4.05;;
29330;SDS011;16331;52.528;13.342;2022-09-09T06:33:56;3.67;;;2.42;;
29330;SDS011;16331;52.528;13.342;2022-09-09T06:36:27;7.03;;;3.20;;
29330;SDS011;16331;52.528;13.342;2022-09-09T06:38:54;4.47;;;2.78;;
29330;SDS011;16331;52.528;13.342;2022-09-09T06:41:23;3.42;;;2.72;;
29330;SDS011;16331;52.528;13.342;2022-09-09T06:43:53;5.53;;;2.45;;
29330;SDS011;16331;52.528;13.342;2022-09-09T06:46:21;4.10;;;2.47;;
29330;SDS011;16331;52.528;13.342;2022-09-09T06:48:48;5.55;;;2.03;;
29330;SDS011;16331;52.528;13.342;2022-09-09T06:51:19;4.18;;;2.17;;
29330;SDS011;16331;52.528;13.342;2022-09-09T06:53:52;2.88;;;2.00;;
29330;SDS011;16331;52.528;13.342;2022-09-09T06:58:50;3.35;;;1.90;;
29330;SDS011;16331;52.528;13.342;2022-09-09T07:01:26;5.68;;;2.10;;
29330;SDS011;16331;52.528;13.342;2022-09-09T07:03:55;5.80;;;2.40;;
29330;SDS011;16331;52.528;13.342;2022-09-09T07:06:27;4.85;;;2.35;;
29330;SDS011;16331;52.528;13.342;2022-09-09T07:08:58;4.15;;;2.03;;
29330;SDS011;16331;52.528;13.342;2022-09-09T07:11:30;2.55;;;1.77;;
29330;SDS011;16331;52.528;13.342;2022-09-09T07:13:58;3.28;;;1.58;;
29330;SDS011;16331;52.528;13.342;2022-09-09T07:16:25;2.55;;;1.75;;
29330;SDS011;16331;52.528;13.342;2022-09-09T07:18:53;4.55;;;2.05;;
29330;SDS011;16331;52.528;13.342;2022-09-09T07:21:22;5.72;;;1.70;;
29330;SDS011;16331;52.528;13.342;2022-09-09T07:23:51;6.90;;;1.85;;
29330;SDS011;16331;52.528;13.342;2022-09-09T07:26:18;6.00;;;2.75;;
29330;SDS011;16331;52.528;13.342;2022-09-09T07:28:46;2.80;;;1.17;;
29330;SDS011;16331;52.528;13.342;2022-09-09T07:33:44;5.55;;;1.70;;
29330;SDS011;16331;52.528;13.342;2022-09-09T07:36:14;4.93;;;2.33;;
29330;SDS011;16331;52.528;13.342;2022-09-09T07:38:52;2.15;;;1.20;;
29330;SDS011;16331;52.528;13.342;2022-09-09T07:41:33;5.10;;;1.45;;
29330;SDS011;16331;52.528;13.342;2022-09-09T07:44:05;6.28;;;1.60;;
29330;SDS011;16331;52.528;13.342;2022-09-09T07:46:33;4.95;;;1.27;;
29330;SDS011;16331;52.528;13.342;2022-09-09T07:49:00;4.72;;;1.02;;
29330;SDS011;16331;52.528;13.342;2022-09-09T07:51:31;2.72;;;1.20;;
29330;SDS011;16331;52.528;13.342;2022-09-09T07:54:00;4.10;;;1.15;;
29330;SDS011;16331;52.528;13.342;2022-09-09T07:56:28;3.20;;;1.50;;
29330;SDS011;16331;52.528;13.342;2022-09-09T07:58:56;3.60;;;1.02;;
29330;SDS011;16331;52.528;13.342;2022-09-09T08:01:27;2.72;;;1.35;;
29330;SDS011;16331;52.528;13.342;2022-09-09T08:03:56;3.10;;;1.40;;
29330;SDS011;16331;52.528;13.342;2022-09-09T08:06:28;4.40;;;1.30;;
29330;SDS011;16331;52.528;13.342;2022-09-09T08:08:58;3.33;;;1.40;;
29330;SDS011;16331;52.528;13.342;2022-09-09T08:11:24;7.03;;;1.13;;
29330;SDS011;16331;52.528;13.342;2022-09-09T08:13:52;2.30;;;0.90;;
29330;SDS011;16331;52.528;13.342;2022-09-09T08:16:20;3.17;;;0.90;;
29330;SDS011;16331;52.528;13.342;2022-09-09T08:18:48;2.30;;;1.02;;
29330;SDS011;16331;52.528;13.342;2022-09-09T08:21:16;2.05;;;1.05;;
29330;SDS011;16331;52.528;13.342;2022-09-09T08:23:44;4.47;;;1.27;;
29330;SDS011;16331;52.528;13.342;2022-09-09T08:26:15;3.88;;;1.30;;
29330;SDS011;16331;52.528;13.342;2022-09-09T08:28:42;2.70;;;0.90;;
29330;SDS011;16331;52.528;13.342;2022-09-09T08:31:13;3.60;;;0.98;;
29330;SDS011;16331;52.528;13.342;2022-09-09T08:33:42;2.22;;;0.93;;
29330;SDS011;16331;52.528;13.342;2022-09-09T08:36:10;1.63;;;0.98;;
29330;SDS011;16331;52.528;13.342;2022-09-09T08:38:40;3.80;;;1.10;;
29330;SDS011;16331;52.528;13.342;2022-09-09T08:44:03;1.08;;;0.90;;
29330;SDS011;16331;52.528;13.342;2022-09-09T08:46:42;4.43;;;0.98;;
29330;SDS011;16331;52.528;13.342;2022-09-09T08:49:30;0.95;;;0.63;;
29330;SDS011;16331;52.528;13.342;2022-09-09T08:52:23;2.40;;;1.00;;
29330;SDS011;16331;52.528;13.342;2022-09-09T08:54:56;5.75;;;1.42;;
29330;SDS011;16331;52.528;13.342;2022-09-09T08:57:28;2.50;;;1.08;;
29330;SDS011;16331;52.528;13.342;2022-09-09T08:59:57;4.60;;;1.27;;
29330;SDS011;16331;52.528;13.342;2022-09-09T09:05:44;6.60;;;1.00;;
29330;SDS011;16331;52.528;13.342;2022-09-09T09:08:12;1.95;;;0.90;;
29330;SDS011;16331;52.528;13.342;2022-09-09T09:10:54;1.85;;;1.30;;
29330;SDS011;16331;52.528;13.342;2022-09-09T09:13:44;2.45;;;1.08;;
29330;SDS011;16331;52.528;13.342;2022-09-09T09:16:22;1.75;;;0.98;;
29330;SDS011;16331;52.528;13.342;2022-09-09T09:18:57;3.17;;;0.95;;
29330;SDS011;16331;52.528;13.342;2022-09-09T09:21:29;3.40;;;1.23;;
29330;SDS011;16331;52.528;13.342;2022-09-09T09:24:01;2.72;;;0.85;;
29330;SDS011;16331;52.528;13.342;2022-09-09T09:26:33;4.53;;;0.90;;
29330;SDS011;16331;52.528;13.342;2022-09-09T09:29:00;2.03;;;1.02;;
29330;SDS011;16331;52.528;13.342;2022-09-09T09:31:36;2.20;;;1.02;;
29330;SDS011;16331;52.528;13.342;2022-09-09T09:34:02;2.55;;;1.23;;
29330;SDS011;16331;52.528;13.342;2022-09-09T09:36:37;1.10;;;0.90;;
29330;SDS011;16331;52.528;13.342;2022-09-09T09:39:27;3.30;;;1.30;;
29330;SDS011;16331;52.528;13.342;2022-09-09T09:41:55;8.90;;;1.30;;
29330;SDS011;16331;52.528;13.342;2022-09-09T09:44:28;3.78;;;0.88;;
29330;SDS011;16331;52.528;13.342;2022-09-09T09:49:39;1.83;;;0.65;;
29330;SDS011;16331;52.528;13.342;2022-09-09T09:52:19;3.53;;;1.08;;
29330;SDS011;16331;52.528;13.342;2022-09-09T09:54:48;5.35;;;0.90;;
29330;SDS011;16331;52.528;13.342;2022-09-09T09:57:15;1.02;;;0.55;;
29330;SDS011;16331;52.528;13.342;2022-09-09T09:59:43;5.57;;;0.80;;
29330;SDS011;16331;52.528;13.342;2022-09-09T10:02:23;3.67;;;1.00;;
29330;SDS011;16331;52.528;13.342;2022-09-09T10:07:45;3.15;;;1.30;;
29330;SDS011;16331;52.528;13.342;2022-09-09T10:10:13;2.13;;;0.80;;
29330;SDS011;16331;52.528;13.342;2022-09-09T10:26:48;1.95;;;0.73;;
29330;SDS011;16331;52.528;13.342;2022-09-09T10:30:02;3.28;;;1.10;;
29330;SDS011;16331;52.528;13.342;2022-09-09T10:40:34;1.80;;;0.88;;
29330;SDS011;16331;52.528;13.342;2022-09-09T10:48:55;2.47;;;0.82;;
29330;SDS011;16331;52.528;13.342;2022-09-09T10:55:17;2.92;;;0.73;;
29330;SDS011;16331;52.528;13.342;2022-09-09T11:00:01;3.47;;;0.90;;
29330;SDS011;16331;52.528;13.342;2022-09-09T11:02:31;5.80;;;1.10;;
29330;SDS011;16331;52.528;13.342;2022-09-09T11:05:07;4.57;;;1.00;;
29330;SDS011;16331;52.528;13.342;2022-09-09T11:10:21;1.23;;;0.60;;
29330;SDS011;16331;52.528;13.342;2022-09-09T11:12:49;3.40;;;0.70;;
29330;SDS011;16331;52.528;13.342;2022-09-09T11:15:28;1.65;;;0.68;;
29330;SDS011;16331;52.528;13.342;2022-09-09T11:18:09;0.80;;;0.70;;
29330;SDS011;16331;52.528;13.342;2022-09-09T11:20:44;3.58;;;0.63;;
29330;SDS011;16331;52.528;13.342;2022-09-09T11:23:13;2.45;;;0.68;;
29330;SDS011;16331;52.528;13.342;2022-09-09T11:25:51;4.10;;;0.95;;
29330;SDS011;16331;52.528;13.342;2022-09-09T11:31:09;1.58;;;0.50;;
29330;SDS011;16331;52.528;13.342;2022-09-09T11:34:08;5.47;;;1.00;;
29330;SDS011;16331;52.528;13.342;2022-09-09T11:42:15;4.05;;;0.90;;
29330;SDS011;16331;52.528;13.342;2022-09-09T11:44:45;1.38;;;0.65;;
29330;SDS011;16331;52.528;13.342;2022-09-09T11:47:27;0.35;;;0.30;;
29330;SDS011;16331;52.528;13.342;2022-09-09T11:50:07;13.38;;;0.57;;
29330;SDS011;16331;52.528;13.342;2022-09-09T11:52:42;0.90;;;0.52;;
29330;SDS011;16331;52.528;13.342;2022-09-09T11:55:29;2.15;;;0.50;;
29330;SDS011;16331;52.528;13.342;2022-09-09T11:57:58;2.90;;;0.40;;
29330;SDS011;16331;52.528;13.342;2022-09-09T12:03:31;3.88;;;0.60;;
29330;SDS011;16331;52.528;13.342;2022-09-09T12:06:20;0.50;;;0.38;;
29330;SDS011;16331;52.528;13.342;2022-09-09T12:08:58;1.70;;;0.52;;
29330;SDS011;16331;52.528;13.342;2022-09-09T12:11:33;0.90;;;0.52;;
29330;SDS011;16331;52.528;13.342;2022-09-09T12:14:00;1.73;;;0.43;;
29330;SDS011;16331;52.528;13.342;2022-09-09T12:16:30;1.48;;;0.40;;
29330;SDS011;16331;52.528;13.342;2022-09-09T12:19:06;2.38;;;0.47;;
29330;SDS011;16331;52.528;13.342;2022-09-09T12:24:36;0.70;;;0.40;;
29330;SDS011;16331;52.528;13.342;2022-09-09T12:29:43;8.07;;;0.80;;
29330;SDS011;16331;52.528;13.342;2022-09-09T12:32:20;3.85;;;0.50;;
29330;SDS011;16331;52.528;13.342;2022-09-09T12:34:52;2.22;;;0.60;;
29330;SDS011;16331;52.528;13.342;2022-09-09T12:37:35;1.63;;;0.40;;
29330;SDS011;16331;52.528;13.342;2022-09-09T12:40:26;3.03;;;1.33;;
29330;SDS011;16331;52.528;13.342;2022-09-09T12:42:56;0.75;;;0.40;;
29330;SDS011;16331;52.528;13.342;2022-09-09T12:45:26;3.05;;;0.50;;
29330;SDS011;16331;52.528;13.342;2022-09-09T12:47:58;1.42;;;0.40;;
29330;SDS011;16331;52.528;13.342;2022-09-09T12:50:33;4.20;;;1.30;;
29330;SDS011;16331;52.528;13.342;2022-09-09T12:53:12;0.88;;;0.38;;
29330;SDS011;16331;52.528;13.342;2022-09-09T12:55:49;2.72;;;0.75;;
29330;SDS011;16331;52.528;13.342;2022-09-09T12:58:17;1.50;;;0.75;;
29330;SDS011;16331;52.528;13.342;2022-09-09T13:01:04;2.25;;;0.45;;
29330;SDS011;16331;52.528;13.342;2022-09-09T13:03:32;4.90;;;0.93;;
29330;SDS011;16331;52.528;13.342;2022-09-09T13:06:18;3.72;;;0.70;;
29330;SDS011;16331;52.528;13.342;2022-09-09T13:08:48;1.45;;;0.40;;
29330;SDS011;16331;52.528;13.342;2022-09-09T13:11:25;2.42;;;0.43;;
29330;SDS011;16331;52.528;13.342;2022-09-09T13:14:00;3.78;;;0.95;;
29330;SDS011;16331;52.528;13.342;2022-09-09T13:16:31;6.28;;;0.93;;
29330;SDS011;16331;52.528;13.342;2022-09-09T13:19:06;3.60;;;1.27;;
29330;SDS011;16331;52.528;13.342;2022-09-09T13:21:35;1.98;;;0.40;;
29330;SDS011;16331;52.528;13.342;2022-09-09T13:24:03;3.45;;;0.60;;
29330;SDS011;16331;52.528;13.342;2022-09-09T13:26:32;1.65;;;0.32;;
29330;SDS011;16331;52.528;13.342;2022-09-09T13:29:15;1.02;;;0.50;;
29330;SDS011;16331;52.528;13.342;2022-09-09T13:31:43;3.70;;;0.80;;
29330;SDS011;16331;52.528;13.342;2022-09-09T13:34:10;3.75;;;0.98;;
29330;SDS011;16331;52.528;13.342;2022-09-09T13:36:52;4.13;;;0.40;;
29330;SDS011;16331;52.528;13.342;2022-09-09T13:39:27;3.50;;;0.50;;
29330;SDS011;16331;52.528;13.342;2022-09-09T13:41:53;1.52;;;0.70;;
29330;SDS011;16331;52.528;13.342;2022-09-09T13:44:21;2.70;;;1.00;;
29330;SDS011;16331;52.528;13.342;2022-09-09T13:49:39;1.65;;;0.60;;
29330;SDS011;16331;52.528;13.342;2022-09-09T13:52:10;3.50;;;0.88;;
29330;SDS011;16331;52.528;13.342;2022-09-09T13:54:41;2.38;;;0.50;;
29330;SDS011;16331;52.528;13.342;2022-09-09T13:57:15;1.52;;;0.60;;
29330;SDS011;16331;52.528;13.342;2022-09-09T13:59:46;2.25;;;0.82;;
29330;SDS011;16331;52.528;13.342;2022-09-09T14:02:13;2.05;;;0.60;;
29330;SDS011;16331;52.528;13.342;2022-09-09T14:04:41;4.25;;;0.60;;
29330;SDS011;16331;52.528;13.342;2022-09-09T14:07:13;1.83;;;0.80;;
29330;SDS011;16331;52.528;13.342;2022-09-09T14:09:41;3.95;;;1.27;;
29330;SDS011;16331;52.528;13.342;2022-09-09T14:12:09;0.88;;;0.43;;
29330;SDS011;16331;52.528;13.342;2022-09-09T14:14:36;1.65;;;1.08;;
29330;SDS011;16331;52.528;13.342;2022-09-09T14:17:03;3.45;;;0.65;;
29330;SDS011;16331;52.528;13.342;2022-09-09T14:19:29;3.03;;;0.60;;
29330;SDS011;16331;52.528;13.342;2022-09-09T14:21:56;1.90;;;0.40;;
29330;SDS011;16331;52.528;13.342;2022-09-09T14:24:26;0.80;;;0.50;;
29330;SDS011;16331;52.528;13.342;2022-09-09T14:27:12;3.15;;;0.82;;
29330;SDS011;16331;52.528;13.342;2022-09-09T14:29:38;1.77;;;0.60;;
29330;SDS011;16331;52.528;13.342;2022-09-09T14:35:13;4.57;;;0.85;;
29330;SDS011;16331;52.528;13.342;2022-09-09T14:37:47;1.23;;;0.30;;
29330;SDS011;16331;52.528;13.342;2022-09-09T14:40:27;0.90;;;0.22;;
29330;SDS011;16331;52.528;13.342;2022-09-09T14:46:49;1.88;;;0.60;;
29330;SDS011;16331;52.528;13.342;2022-09-09T14:49:18;3.83;;;0.90;;
29330;SDS011;16331;52.528;13.342;2022-09-09T14:51:44;0.95;;;0.70;;
29330;SDS011;16331;52.528;13.342;2022-09-09T14:54:10;1.35;;;0.57;;
29330;SDS011;16331;52.528;13.342;2022-09-09T14:56:36;1.20;;;0.60;;
29330;SDS011;16331;52.528;13.342;2022-09-09T14:59:03;1.35;;;0.70;;
29330;SDS011;16331;52.528;13.342;2022-09-09T15:01:32;1.88;;;0.68;;
29330;SDS011;16331;52.528;13.342;2022-09-09T15:03:59;3.17;;;1.08;;
29330;SDS011;16331;52.528;13.342;2022-09-09T15:06:28;1.58;;;0.40;;
29330;SDS011;16331;52.528;13.342;2022-09-09T15:08:57;3.13;;;0.65;;
29330;SDS011;16331;52.528;13.342;2022-09-09T15:11:28;4.72;;;0.88;;
29330;SDS011;16331;52.528;13.342;2022-09-09T15:13:57;2.28;;;0.88;;
29330;SDS011;16331;52.528;13.342;2022-09-09T15:16:25;4.15;;;0.50;;
29330;SDS011;16331;52.528;13.342;2022-09-09T15:18:53;5.15;;;1.08;;
29330;SDS011;16331;52.528;13.342;2022-09-09T15:21:23;2.95;;;0.75;;
29330;SDS011;16331;52.528;13.342;2022-09-09T15:23:51;5.15;;;0.75;;
29330;SDS011;16331;52.528;13.342;2022-09-09T15:26:20;6.40;;;2.00;;
29330;SDS011;16331;52.528;13.342;2022-09-09T15:29:12;4.35;;;1.10;;
29330;SDS011;16331;52.528;13.342;2022-09-09T15:31:38;6.82;;;2.35;;
29330;SDS011;16331;52.528;13.342;2022-09-09T15:34:05;1.25;;;0.40;;
29330;SDS011;16331;52.528;13.342;2022-09-09T15:36:35;1.00;;;0.60;;
29330;SDS011;16331;52.528;13.342;2022-09-09T15:39:04;4.68;;;0.75;;
29330;SDS011;16331;52.528;13.342;2022-09-09T15:41:32;3.33;;;1.10;;
29330;SDS011;16331;52.528;13.342;2022-09-09T15:43:58;3.10;;;0.65;;
29330;SDS011;16331;52.528;13.342;2022-09-09T15:46:27;2.53;;;1.00;;
29330;SDS011;16331;52.528;13.342;2022-09-09T15:49:03;3.20;;;1.10;;
29330;SDS011;16331;52.528;13.342;2022-09-09T15:51:50;4.00;;;1.13;;
29330;SDS011;16331;52.528;13.342;2022-09-09T15:54:21;7.05;;;1.48;;
29330;SDS011;16331;52.528;13.342;2022-09-09T15:56:53;2.67;;;1.50;;
29330;SDS011;16331;52.528;13.342;2022-09-09T15:59:22;1.38;;;0.82;;
29330;SDS011;16331;52.528;13.342;2022-09-09T16:01:48;4.63;;;2.30;;
29330;SDS011;16331;52.528;13.342;2022-09-09T16:04:18;2.97;;;1.33;;
29330;SDS011;16331;52.528;13.342;2022-09-09T16:06:54;3.63;;;1.33;;
29330;SDS011;16331;52.528;13.342;2022-09-09T16:09:23;4.88;;;1.80;;
29330;SDS011;16331;52.528;13.342;2022-09-09T16:11:50;6.40;;;2.60;;
29330;SDS011;16331;52.528;13.342;2022-09-09T16:14:18;17.45;;;7.22;;
29330;SDS011;16331;52.528;13.342;2022-09-09T16:16:44;8.77;;;2.63;;
29330;SDS011;16331;52.528;13.342;2022-09-09T16:19:11;12.77;;;3.85;;
29330;SDS011;16331;52.528;13.342;2022-09-09T16:21:44;4.40;;;1.40;;
29330;SDS011;16331;52.528;13.342;2022-09-09T16:24:13;6.90;;;2.58;;
29330;SDS011;16331;52.528;13.342;2022-09-09T16:26:43;3.00;;;1.38;;
29330;SDS011;16331;52.528;13.342;2022-09-09T16:29:11;17.55;;;5.88;;
29330;SDS011;16331;52.528;13.342;2022-09-09T16:31:39;5.20;;;2.30;;
29330;SDS011;16331;52.528;13.342;2022-09-09T16:34:06;8.68;;;3.40;;
29330;SDS011;16331;52.528;13.342;2022-09-09T16:36:33;3.42;;;1.58;;
29330;SDS011;16331;52.528;13.342;2022-09-09T16:39:05;3.55;;;1.08;;
29330;SDS011;16331;52.528;13.342;2022-09-09T16:41:34;6.25;;;1.92;;
29330;SDS011;16331;52.528;13.342;2022-09-09T16:44:01;5.18;;;2.10;;
29330;SDS011;16331;52.528;13.342;2022-09-09T16:46:43;8.45;;;2.35;;
29330;SDS011;16331;52.528;13.342;2022-09-09T16:49:10;7.25;;;3.15;;
29330;SDS011;16331;52.528;13.342;2022-09-09T16:51:46;11.10;;;4.25;;
29330;SDS011;16331;52.528;13.342;2022-09-09T16:54:15;11.13;;;4.15;;
29330;SDS011;16331;52.528;13.342;2022-09-09T16:56:42;10.43;;;4.30;;
29330;SDS011;16331;52.528;13.342;2022-09-09T16:59:14;9.02;;;3.03;;
29330;SDS011;16331;52.528;13.342;2022-09-09T17:01:43;18.38;;;8.18;;
29330;SDS011;16331;52.528;13.342;2022-09-09T17:04:13;11.82;;;5.20;;